Time;durP1;ratioP1;P1;durP2;ratioP2;P2;SDS_P1;SDS_P2;PMS_P1;PMS_P2;Temp;Humidity;BMP_temperature;BMP_pressure;BME280_temperature;BME280_humidity;BME280_pressure;Samples;Min_cycle;Max_cycle;Signal;HPM_P1;HPM_P2
2024/01/16 00:04:31;;;;;;;4.03;2.72;;;2.30;99.90;;;;;;10055889;28;20033;-69
2024/01/16 00:09:21;;;;;;;6.18;2.50;;;2.30;99.90;;;;;;10056709;28;20178;-70
2024/01/16 00:14:18;;;;;;;6.10;2.72;;;2.20;99.90;;;;;;10055834;28;20060;-73
2024/01/16 00:19:11;;;;;;;5.47;3.08;;;2.20;99.90;;;;;;10054496;28;20053;-71
2024/01/16 00:24:02;;;;;;;5.78;2.63;;;2.30;99.90;;;;;;10056020;28;20159;-70
2024/01/16 00:28:53;;;;;;;6.25;2.70;;;2.30;99.90;;;;;;10055761;28;20156;-72
2024/01/16 00:33:44;;;;;;;6.30;2.65;;;2.20;99.90;;;;;;10059383;28;20041;-73
2024/01/16 00:38:34;;;;;;;5.22;3.00;;;2.30;99.90;;;;;;10068760;28;20044;-73
2024/01/16 00:43:25;;;;;;;6.32;3.05;;;2.30;99.90;;;;;;10072100;28;20033;-70
2024/01/16 00:48:16;;;;;;;4.03;2.15;;;2.20;99.90;;;;;;10067885;28;20360;-70
2024/01/16 00:53:07;;;;;;;4.55;2.17;;;2.20;99.90;;;;;;10068225;28;20064;-68
2024/01/16 00:57:58;;;;;;;6.03;2.25;;;2.20;99.90;;;;;;10068935;28;20017;-69
2024/01/16 01:02:49;;;;;;;4.82;2.17;;;2.20;99.90;;;;;;10067229;28;20033;-72
2024/01/16 01:07:40;;;;;;;5.53;2.70;;;2.20;99.90;;;;;;10067087;28;20670;-70
2024/01/16 01:12:31;;;;;;;5.57;2.40;;;2.20;99.90;;;;;;10068058;28;20048;-72
2024/01/16 01:17:24;;;;;;;6.45;3.13;;;2.20;99.90;;;;;;10069352;28;20419;-72
2024/01/16 01:22:15;;;;;;;5.22;2.90;;;2.10;99.90;;;;;;10066359;28;20122;-72
2024/01/16 01:27:06;;;;;;;6.50;2.80;;;2.10;99.90;;;;;;10067820;28;20108;-70
2024/01/16 01:32:00;;;;;;;6.15;2.45;;;2.10;99.90;;;;;;10068210;28;20134;-72
2024/01/16 01:36:50;;;;;;;4.95;2.80;;;2.10;99.90;;;;;;10067934;28;20040;-71
2024/01/16 01:41:41;;;;;;;5.68;2.83;;;2.10;99.90;;;;;;10066996;28;20045;-72
2024/01/16 01:46:34;;;;;;;5.43;2.90;;;2.10;99.90;;;;;;10063264;28;20032;-70
2024/01/16 01:51:26;;;;;;;4.32;2.47;;;2.00;99.90;;;;;;10061432;28;20029;-69
2024/01/16 01:56:21;;;;;;;7.60;2.53;;;2.00;99.90;;;;;;10061128;28;20022;-74
2024/01/16 02:01:14;;;;;;;6.20;2.70;;;2.10;99.90;;;;;;10060779;28;20037;-71
2024/01/16 02:06:07;;;;;;;4.78;2.65;;;2.00;99.90;;;;;;10060710;28;20052;-73
2024/01/16 02:10:58;;;;;;;5.05;2.45;;;2.00;99.90;;;;;;10060677;28;20025;-72
2024/01/16 02:15:50;;;;;;;7.85;2.55;;;1.90;99.90;;;;;;10060367;28;20043;-72
2024/01/16 02:20:44;;;;;;;7.45;2.70;;;1.80;99.90;;;;;;10060034;28;20041;-71
2024/01/16 02:25:34;;;;;;;4.72;2.88;;;1.90;99.90;;;;;;10059904;28;20033;-70
2024/01/16 02:30:25;;;;;;;5.40;2.20;;;1.80;99.90;;;;;;10063951;28;20034;-69
2024/01/16 02:35:18;;;;;;;7.47;2.70;;;1.80;99.90;;;;;;10057957;28;20036;-71
2024/01/16 02:40:09;;;;;;;4.50;2.60;;;1.80;99.90;;;;;;10059639;28;20140;-71
2024/01/16 02:45:00;;;;;;;8.93;3.45;;;1.70;99.90;;;;;;10057720;28;20026;-71
2024/01/16 02:49:51;;;;;;;5.63;2.80;;;1.60;99.90;;;;;;10058833;28;20509;-73
2024/01/16 02:54:41;;;;;;;6.43;2.70;;;1.60;99.90;;;;;;10058543;28;20597;-70
2024/01/16 02:59:32;;;;;;;8.15;3.17;;;1.50;99.90;;;;;;10058646;28;20742;-70
2024/01/16 03:04:23;;;;;;;4.45;2.78;;;1.50;99.90;;;;;;10058094;28;20038;-72
2024/01/16 03:09:14;;;;;;;7.07;3.33;;;1.40;99.90;;;;;;10058440;28;20087;-73
2024/01/16 03:14:06;;;;;;;6.78;3.15;;;1.40;99.90;;;;;;10057657;28;20522;-69
2024/01/16 03:18:56;;;;;;;7.93;3.85;;;1.40;99.90;;;;;;10055928;28;20273;-71
2024/01/16 03:23:47;;;;;;;4.75;3.38;;;1.50;99.90;;;;;;10056988;28;20112;-71
2024/01/16 03:28:39;;;;;;;7.35;4.07;;;1.30;99.90;;;;;;10057289;28;20057;-71
2024/01/16 03:33:30;;;;;;;6.50;3.45;;;1.30;99.90;;;;;;10058971;28;20431;-72
2024/01/16 03:38:21;;;;;;;7.80;3.70;;;1.30;99.90;;;;;;10057443;28;20030;-70
2024/01/16 03:43:11;;;;;;;7.68;3.95;;;1.30;99.90;;;;;;10055336;28;20111;-70
2024/01/16 03:48:03;;;;;;;6.75;3.80;;;1.20;99.90;;;;;;10056890;28;20479;-73
2024/01/16 03:52:54;;;;;;;8.18;3.63;;;1.20;99.90;;;;;;10053464;28;20146;-73
2024/01/16 03:57:45;;;;;;;7.40;3.65;;;1.10;99.90;;;;;;10052331;28;20052;-72
2024/01/16 04:02:37;;;;;;;9.00;3.95;;;1.10;99.90;;;;;;10054001;28;20046;-72
2024/01/16 04:07:28;;;;;;;7.35;3.58;;;1.10;99.90;;;;;;10055500;28;20103;-71
2024/01/16 04:12:19;;;;;;;9.10;3.45;;;1.20;99.90;;;;;;10056247;28;20278;-73
2024/01/16 04:17:10;;;;;;;11.30;3.72;;;1.10;99.90;;;;;;10056156;28;20024;-70
2024/01/16 04:22:01;;;;;;;12.13;4.18;;;1.10;99.90;;;;;;10050288;28;20103;-69
2024/01/16 04:26:51;;;;;;;6.35;3.67;;;1.00;99.90;;;;;;10055811;28;20025;-70
2024/01/16 04:31:42;;;;;;;11.68;3.63;;;1.00;99.90;;;;;;10055449;28;20399;-72
2024/01/16 04:36:37;;;;;;;9.02;3.85;;;1.00;99.90;;;;;;10051652;28;20041;-70
2024/01/16 04:41:27;;;;;;;9.63;3.72;;;1.00;99.90;;;;;;10054411;28;20037;-70
2024/01/16 04:46:18;;;;;;;11.20;5.15;;;0.90;99.90;;;;;;10055508;28;20079;-74
2024/01/16 04:51:09;;;;;;;10.25;4.10;;;1.00;99.90;;;;;;10055315;28;20030;-76
2024/01/16 04:56:00;;;;;;;12.35;4.63;;;1.00;99.90;;;;;;10056544;28;20695;-71
2024/01/16 05:00:50;;;;;;;7.88;4.15;;;0.90;99.90;;;;;;10055088;28;20096;-72
2024/01/16 05:05:41;;;;;;;14.95;5.20;;;0.90;99.90;;;;;;10053612;28;20033;-69
2024/01/16 05:10:32;;;;;;;7.05;3.60;;;0.90;99.90;;;;;;10053859;28;20110;-70
2024/01/16 05:15:23;;;;;;;7.72;4.30;;;0.80;99.90;;;;;;10054104;28;20025;-71
2024/01/16 05:20:14;;;;;;;13.98;5.30;;;0.70;99.90;;;;;;10049903;28;20142;-70
2024/01/16 05:25:07;;;;;;;8.55;4.38;;;0.80;99.90;;;;;;10057984;28;20288;-71
2024/01/16 05:29:57;;;;;;;8.43;4.10;;;0.70;99.90;;;;;;10061629;28;20025;-72
2024/01/16 05:34:52;;;;;;;6.90;4.68;;;0.70;99.90;;;;;;10062001;28;20038;-70
2024/01/16 05:39:43;;;;;;;9.23;4.15;;;0.60;99.90;;;;;;10061074;28;20387;-72
2024/01/16 05:44:34;;;;;;;8.73;4.32;;;0.60;99.90;;;;;;10061023;28;20025;-71
2024/01/16 05:49:25;;;;;;;13.85;4.32;;;0.40;99.90;;;;;;10067561;28;20101;-72
2024/01/16 05:54:16;;;;;;;9.45;4.15;;;0.50;99.90;;;;;;10075523;28;20045;-71
2024/01/16 05:59:07;;;;;;;10.98;4.07;;;0.50;99.90;;;;;;10060708;28;20122;-71
2024/01/16 06:03:57;;;;;;;10.07;4.03;;;0.50;99.90;;;;;;10059980;28;20039;-71
2024/01/16 06:08:48;;;;;;;9.70;4.65;;;0.40;99.90;;;;;;10060249;28;20052;-71
2024/01/16 06:13:40;;;;;;;9.50;4.13;;;0.40;99.90;;;;;;10059806;28;20029;-72
2024/01/16 06:18:30;;;;;;;9.35;4.03;;;0.30;99.90;;;;;;10059702;28;20079;-70
2024/01/16 06:23:21;;;;;;;9.90;4.32;;;0.30;99.90;;;;;;10061235;28;20423;-72
2024/01/16 06:28:12;;;;;;;9.32;3.95;;;0.30;99.90;;;;;;10055184;28;20022;-70
2024/01/16 06:33:03;;;;;;;12.23;4.15;;;0.30;99.90;;;;;;10058424;28;20036;-70
2024/01/16 06:37:53;;;;;;;7.82;3.95;;;0.30;99.90;;;;;;10058668;28;20048;-72
2024/01/16 06:42:44;;;;;;;8.35;4.60;;;0.30;99.90;;;;;;10058327;28;20115;-72
2024/01/16 06:47:36;;;;;;;9.63;4.90;;;0.30;99.90;;;;;;10056238;28;20033;-71
2024/01/16 06:52:27;;;;;;;12.32;4.18;;;0.30;99.90;;;;;;10053418;28;20033;-70
2024/01/16 06:57:17;;;;;;;11.43;4.95;;;0.30;99.90;;;;;;10057546;28;20117;-71
2024/01/16 07:02:08;;;;;;;10.23;5.18;;;0.30;99.90;;;;;;10057373;28;20041;-71
2024/01/16 07:07:01;;;;;;;10.02;5.15;;;0.30;99.90;;;;;;10058209;28;20037;-71
2024/01/16 07:11:53;;;;;;;11.48;4.60;;;0.30;99.90;;;;;;10057209;28;20386;-70
2024/01/16 07:16:43;;;;;;;10.93;5.10;;;0.30;99.90;;;;;;10056257;28;20124;-70
2024/01/16 07:21:35;;;;;;;11.15;4.60;;;0.30;99.90;;;;;;10057320;28;20136;-71
2024/01/16 07:26:26;;;;;;;7.45;4.15;;;0.30;99.90;;;;;;10057865;28;20091;-70
2024/01/16 07:31:17;;;;;;;11.27;5.32;;;0.30;99.90;;;;;;10056756;28;20112;-71
2024/01/16 07:36:09;;;;;;;10.80;4.00;;;0.30;99.90;;;;;;10056253;28;20108;-70
2024/01/16 07:41:00;;;;;;;12.50;5.00;;;0.30;99.90;;;;;;10057877;28;20041;-70
2024/01/16 07:45:51;;;;;;;9.23;4.05;;;0.30;99.90;;;;;;10055630;28;20033;-70
2024/01/16 07:50:41;;;;;;;12.40;4.47;;;0.30;99.90;;;;;;10057026;28;20033;-71
2024/01/16 07:55:32;;;;;;;9.80;3.85;;;0.30;99.90;;;;;;10056984;28;20480;-73
2024/01/16 08:00:23;;;;;;;9.85;4.70;;;0.30;99.90;;;;;;10055760;28;20044;-75
2024/01/16 08:05:13;;;;;;;9.45;5.35;;;0.30;99.90;;;;;;10054684;28;20203;-72
2024/01/16 08:10:05;;;;;;;9.27;3.85;;;0.30;99.90;;;;;;10054459;28;20036;-70
2024/01/16 08:14:56;;;;;;;11.23;5.22;;;0.40;99.90;;;;;;10055391;28;20079;-70
2024/01/16 08:19:46;;;;;;;11.27;5.20;;;0.40;99.90;;;;;;10055786;28;20442;-71
2024/01/16 08:24:40;;;;;;;9.73;4.72;;;0.40;99.90;;;;;;10053501;28;20091;-73
2024/01/16 08:29:30;;;;;;;10.68;4.97;;;0.40;99.90;;;;;;10057757;28;20063;-74
2024/01/16 08:34:21;;;;;;;5.72;4.15;;;0.40;99.90;;;;;;10054132;28;20036;-73
2024/01/16 08:39:13;;;;;;;11.52;5.18;;;0.50;99.90;;;;;;10055612;28;20029;-78
2024/01/16 08:44:04;;;;;;;11.75;5.57;;;0.60;99.90;;;;;;10056914;28;20434;-78
2024/01/16 08:48:55;;;;;;;16.80;5.55;;;0.60;99.90;;;;;;10058922;28;20025;-77
2024/01/16 08:53:45;;;;;;;13.30;5.43;;;0.70;99.90;;;;;;10056532;28;20041;-69
2024/01/16 08:58:37;;;;;;;10.25;5.13;;;0.70;99.90;;;;;;10061450;28;20022;-73
2024/01/16 09:03:28;;;;;;;9.82;5.07;;;0.70;99.90;;;;;;10063212;28;20038;-70
2024/01/16 09:08:18;;;;;;;12.15;6.13;;;0.70;99.90;;;;;;10062988;28;20025;-73
2024/01/16 09:13:11;;;;;;;11.27;5.53;;;0.80;99.90;;;;;;10065561;28;20467;-72
2024/01/16 09:18:02;;;;;;;11.10;5.60;;;0.90;99.90;;;;;;10063473;28;20026;-74
2024/01/16 09:22:52;;;;;;;14.45;5.82;;;0.90;99.90;;;;;;10063052;28;20523;-71
2024/01/16 09:27:44;;;;;;;19.98;6.28;;;1.00;99.90;;;;;;10063602;28;20030;-73
2024/01/16 09:32:35;;;;;;;16.85;6.15;;;1.00;99.90;;;;;;10056820;28;20660;-76
2024/01/16 09:37:29;;;;;;;12.43;6.13;;;1.10;99.90;;;;;;10061722;28;20014;-76
2024/01/16 09:42:20;;;;;;;12.93;5.97;;;1.10;99.90;;;;;;10063733;28;20646;-79
2024/01/16 09:47:11;;;;;;;13.23;5.32;;;1.20;99.90;;;;;;10062935;28;20048;-80
2024/01/16 09:52:03;;;;;;;11.90;5.20;;;1.20;99.90;;;;;;10068425;28;20673;-77
2024/01/16 09:56:58;;;;;;;9.93;4.78;;;1.20;99.90;;;;;;10061618;28;20045;-74
2024/01/16 10:01:51;;;;;;;14.48;4.90;;;1.30;99.90;;;;;;10061849;28;20100;-73
2024/01/16 10:06:46;;;;;;;9.27;4.30;;;1.30;99.90;;;;;;10060293;28;20032;-75
2024/01/16 10:11:37;;;;;;;11.23;4.15;;;1.40;99.90;;;;;;10060467;28;20037;-72
2024/01/16 10:17:02;;;;;;;8.38;4.32;;;1.30;99.90;;;;;;10064780;28;20030;-74
2024/01/16 10:22:04;;;;;;;7.97;3.58;;;1.40;99.90;;;;;;10054560;28;20060;-71
2024/01/16 10:27:08;;;;;;;8.25;4.30;;;1.30;99.90;;;;;;10057018;28;20464;-75
2024/01/16 10:32:00;;;;;;;8.82;3.80;;;1.30;99.90;;;;;;10061017;28;20041;-77
2024/01/16 10:36:58;;;;;;;5.88;4.03;;;1.40;99.90;;;;;;10059149;28;20585;-74
2024/01/16 10:41:56;;;;;;;7.03;3.83;;;1.50;99.90;;;;;;10062380;28;20045;-76
2024/01/16 10:46:47;;;;;;;7.90;3.75;;;1.40;99.90;;;;;;10060543;28;20034;-75
2024/01/16 10:51:42;;;;;;;10.40;4.30;;;1.50;99.90;;;;;;10063814;28;20024;-75
2024/01/16 10:56:34;;;;;;;9.03;4.10;;;1.50;99.90;;;;;;10058397;28;20022;-77
2024/01/16 11:01:25;;;;;;;8.68;3.67;;;1.60;99.90;;;;;;10055515;28;20041;-75
2024/01/16 11:06:17;;;;;;;13.75;5.03;;;1.60;99.90;;;;;;10058541;28;20076;-73
2024/01/16 11:11:08;;;;;;;10.02;3.55;;;1.60;99.90;;;;;;10058529;28;20045;-77
2024/01/16 11:15:59;;;;;;;7.97;3.95;;;1.60;99.90;;;;;;10073279;28;20116;-71
2024/01/16 11:20:51;;;;;;;9.07;3.60;;;1.80;99.90;;;;;;10058239;28;20123;-74
2024/01/16 11:25:42;;;;;;;10.82;4.05;;;1.70;99.90;;;;;;10056437;28;20582;-74
2024/01/16 11:30:33;;;;;;;7.88;3.78;;;1.70;99.90;;;;;;10056360;28;20040;-73
2024/01/16 11:35:36;;;;;;;8.55;4.40;;;1.80;99.90;;;;;;10056097;28;20585;-74
2024/01/16 11:40:32;;;;;;;7.90;3.75;;;1.80;99.90;;;;;;10056102;28;20128;-72
2024/01/16 11:45:29;;;;;;;;;;;1.80;99.90;;;;;;10056855;28;20075;-73
2024/01/16 11:50:31;;;;;;;6.10;3.05;;;1.80;99.90;;;;;;10056881;28;19952;-73
2024/01/16 11:55:30;;;;;;;9.77;3.55;;;1.90;99.90;;;;;;10055900;28;20037;-72
2024/01/16 12:00:21;;;;;;;6.43;3.75;;;1.90;99.90;;;;;;10054493;28;20854;-71
2024/01/16 12:05:12;;;;;;;6.78;3.58;;;2.00;99.90;;;;;;10056732;28;20036;-74
2024/01/16 12:10:03;;;;;;;7.93;3.60;;;2.00;99.90;;;;;;10056113;28;20068;-70
2024/01/16 12:14:54;;;;;;;8.10;3.80;;;2.00;99.90;;;;;;10048558;28;20045;-72
2024/01/16 12:19:45;;;;;;;6.35;3.35;;;2.00;99.90;;;;;;10044035;28;20049;-72
2024/01/16 12:24:37;;;;;;;7.28;3.33;;;2.00;99.90;;;;;;10040640;28;20036;-73
2024/01/16 12:29:29;;;;;;;6.97;3.17;;;2.00;99.90;;;;;;10033679;28;20033;-73
2024/01/16 12:34:22;;;;;;;8.43;3.20;;;2.10;99.90;;;;;;10040258;28;20034;-73
2024/01/16 12:39:14;;;;;;;6.03;3.17;;;2.10;99.90;;;;;;10055363;28;20033;-73
2024/01/16 12:44:05;;;;;;;7.93;2.42;;;2.10;99.90;;;;;;10058989;28;20195;-74
2024/01/16 12:49:06;;;;;;;4.05;2.75;;;2.10;99.90;;;;;;10055525;28;20121;-75
2024/01/16 12:54:12;;;;;;;8.68;2.97;;;2.10;99.90;;;;;;10061395;28;20057;-74
2024/01/16 12:59:10;;;;;;;7.20;2.88;;;2.10;99.90;;;;;;10044842;28;20017;-69
2024/01/16 13:04:04;;;;;;;4.78;2.03;;;2.20;99.90;;;;;;10035543;28;20479;-73
2024/01/16 13:09:10;;;;;;;3.63;2.05;;;2.20;99.90;;;;;;10054036;28;20021;-72
2024/01/16 13:14:03;;;;;;;3.40;2.10;;;2.20;99.90;;;;;;10060868;28;20033;-69
2024/01/16 13:19:02;;;;;;;4.30;1.83;;;2.20;99.90;;;;;;10053639;28;20499;-69
2024/01/16 13:23:52;;;;;;;2.20;1.65;;;2.20;99.90;;;;;;10055813;28;20398;-72
2024/01/16 13:28:43;;;;;;;5.15;2.38;;;2.20;99.90;;;;;;10056561;28;20029;-71
2024/01/16 13:33:34;;;;;;;4.30;1.83;;;2.20;99.90;;;;;;10059351;28;20116;-75
2024/01/16 13:38:24;;;;;;;3.40;1.63;;;2.20;99.90;;;;;;10058359;28;20037;-75
2024/01/16 13:43:16;;;;;;;3.70;2.20;;;2.30;99.90;;;;;;10056275;28;20048;-74
2024/01/16 13:48:07;;;;;;;1.90;1.25;;;2.30;99.90;;;;;;10062892;28;20025;-74
2024/01/16 13:52:57;;;;;;;4.35;1.88;;;2.40;99.90;;;;;;10061248;28;20534;-74
2024/01/16 13:57:49;;;;;;;6.93;2.33;;;2.40;99.90;;;;;;10062503;28;20026;-73
2024/01/16 14:02:41;;;;;;;5.25;2.30;;;2.30;99.90;;;;;;10062088;28;20044;-68
2024/01/16 14:07:31;;;;;;;4.25;2.03;;;2.30;99.90;;;;;;10059972;28;20033;-73
2024/01/16 14:12:24;;;;;;;5.80;2.00;;;2.30;99.90;;;;;;10060028;28;20037;-68
2024/01/16 14:17:15;;;;;;;2.88;1.70;;;2.40;99.90;;;;;;10061578;28;20010;-71
2024/01/16 14:22:06;;;;;;;3.90;1.80;;;2.40;99.90;;;;;;10059543;28;20061;-70
2024/01/16 14:26:57;;;;;;;4.25;2.35;;;2.30;99.90;;;;;;10059665;28;20047;-67
2024/01/16 14:31:48;;;;;;;5.80;1.80;;;2.30;99.90;;;;;;10057869;28;20487;-67
2024/01/16 14:36:45;;;;;;;3.47;1.48;;;2.30;99.90;;;;;;10060180;28;20059;-70
2024/01/16 14:41:36;;;;;;;3.35;1.70;;;2.40;99.90;;;;;;10057681;28;20037;-72
2024/01/16 14:46:26;;;;;;;3.90;2.08;;;2.30;99.90;;;;;;10059696;28;20021;-71
2024/01/16 14:51:17;;;;;;;3.78;2.25;;;2.30;99.90;;;;;;10058647;28;20530;-73
2024/01/16 14:56:09;;;;;;;4.80;2.13;;;2.30;99.90;;;;;;10048186;28;20031;-69
2024/01/16 15:00:59;;;;;;;3.03;1.45;;;2.40;99.90;;;;;;10059782;28;20060;-70
2024/01/16 15:05:53;;;;;;;3.10;1.60;;;2.30;99.90;;;;;;10062140;28;20026;-73
2024/01/16 15:10:43;;;;;;;1.92;1.27;;;2.30;99.90;;;;;;10062467;28;20041;-71
2024/01/16 15:15:34;;;;;;;5.18;2.03;;;2.40;99.90;;;;;;10063914;28;20047;-75
2024/01/16 15:20:25;;;;;;;4.75;1.40;;;2.30;99.90;;;;;;10060963;28;20053;-76
2024/01/16 15:25:19;;;;;;;7.75;2.05;;;2.30;99.90;;;;;;10061037;28;20033;-76
2024/01/16 15:30:11;;;;;;;4.15;2.15;;;2.30;99.90;;;;;;10059491;28;20446;-74
2024/01/16 15:35:02;;;;;;;3.72;1.67;;;2.30;99.90;;;;;;10058349;28;20122;-71
2024/01/16 15:39:53;;;;;;;3.22;1.65;;;2.30;99.90;;;;;;10057647;28;20045;-70
2024/01/16 15:44:43;;;;;;;2.35;1.73;;;2.40;99.90;;;;;;10057561;28;20034;-72
2024/01/16 15:49:35;;;;;;;5.10;1.77;;;2.30;99.90;;;;;;10056133;28;20025;-72
2024/01/16 15:54:27;;;;;;;6.72;2.03;;;2.20;99.90;;;;;;10056660;28;20444;-72
2024/01/16 15:59:17;;;;;;;4.35;2.10;;;2.20;99.90;;;;;;10055188;28;20609;-70
2024/01/16 16:04:10;;;;;;;3.55;2.20;;;2.10;99.90;;;;;;10056697;28;20036;-70
2024/01/16 16:09:02;;;;;;;3.30;1.80;;;2.20;99.90;;;;;;10063477;28;20387;-70
2024/01/16 16:13:53;;;;;;;2.97;1.60;;;2.20;99.90;;;;;;10056333;28;20026;-71
2024/01/16 16:18:44;;;;;;;4.57;1.98;;;2.20;99.90;;;;;;10063900;28;20511;-70
2024/01/16 16:23:35;;;;;;;3.55;1.90;;;2.20;99.90;;;;;;10056440;28;20045;-71
2024/01/16 16:28:26;;;;;;;3.88;2.15;;;2.20;99.90;;;;;;10056377;28;20096;-71
2024/01/16 16:33:17;;;;;;;4.32;2.22;;;2.20;99.90;;;;;;10055201;28;20030;-72
2024/01/16 16:38:09;;;;;;;3.78;2.17;;;2.20;99.90;;;;;;10056716;28;20108;-69
2024/01/16 16:43:00;;;;;;;3.90;2.28;;;2.20;99.90;;;;;;10055706;28;20456;-78
2024/01/16 16:47:50;;;;;;;4.43;2.20;;;2.10;99.90;;;;;;10056043;28;20028;-76
2024/01/16 16:52:41;;;;;;;4.93;1.80;;;2.10;99.90;;;;;;10054883;28;20428;-75
2024/01/16 16:57:32;;;;;;;8.07;2.90;;;2.20;99.90;;;;;;10056035;28;20021;-69
2024/01/16 17:02:23;;;;;;;5.07;2.33;;;2.10;99.90;;;;;;10055448;28;20037;-69
2024/01/16 17:07:14;;;;;;;5.68;2.53;;;2.10;99.90;;;;;;10055566;28;20510;-69
2024/01/16 17:12:06;;;;;;;4.03;2.28;;;2.10;99.90;;;;;;10052866;28;20033;-69
2024/01/16 17:16:56;;;;;;;5.72;3.15;;;2.10;99.90;;;;;;10054111;28;20037;-67
2024/01/16 17:21:47;;;;;;;9.38;3.83;;;2.10;99.90;;;;;;10058678;28;20450;-71
2024/01/16 17:26:42;;;;;;;10.00;4.70;;;2.10;99.90;;;;;;10059441;28;20033;-70
2024/01/16 17:31:33;;;;;;;11.48;4.63;;;2.00;99.90;;;;;;10059503;28;20037;-72
2024/01/16 17:36:24;;;;;;;11.48;4.60;;;2.00;99.90;;;;;;10061706;28;20446;-70
2024/01/16 17:41:14;;;;;;;11.23;4.82;;;2.00;99.90;;;;;;10061159;28;20044;-68
2024/01/16 17:46:06;;;;;;;9.27;4.30;;;1.90;99.90;;;;;;10061490;28;20647;-70
2024/01/16 17:51:00;;;;;;;8.10;3.85;;;1.90;99.90;;;;;;10062057;28;20376;-69
2024/01/16 17:55:51;;;;;;;9.65;4.85;;;1.90;99.90;;;;;;10060001;28;20372;-73
2024/01/16 18:00:41;;;;;;;10.73;4.80;;;1.90;99.90;;;;;;10060635;28;20045;-70
2024/01/16 18:05:33;;;;;;;10.43;5.20;;;1.90;99.90;;;;;;10065162;28;20022;-72
2024/01/16 18:10:24;;;;;;;16.45;5.85;;;1.90;99.90;;;;;;10058577;28;20067;-73
2024/01/16 18:15:15;;;;;;;13.73;6.15;;;1.90;99.90;;;;;;10076860;28;20033;-75
2024/01/16 18:20:12;;;;;;;17.13;6.35;;;1.90;99.90;;;;;;10074206;28;20761;-76
2024/01/16 18:25:06;;;;;;;12.65;4.85;;;1.90;99.90;;;;;;10060400;28;20065;-69
2024/01/16 18:29:57;;;;;;;12.73;5.47;;;1.80;99.90;;;;;;10059183;28;20036;-70
2024/01/16 18:34:48;;;;;;;12.98;5.35;;;1.80;99.90;;;;;;10038010;28;20034;-71
2024/01/16 18:39:39;;;;;;;9.57;5.15;;;1.90;99.90;;;;;;10055424;28;20045;-76
2024/01/16 18:44:31;;;;;;;8.07;4.20;;;1.80;99.90;;;;;;10058674;28;20052;-71
2024/01/16 18:49:21;;;;;;;7.63;4.30;;;1.80;99.90;;;;;;10057613;28;20037;-71
2024/01/16 18:54:12;;;;;;;14.50;5.15;;;1.80;99.90;;;;;;10050806;28;20033;-70
2024/01/16 18:59:04;;;;;;;10.20;5.03;;;1.70;99.90;;;;;;10054185;28;20082;-71
2024/01/16 19:03:56;;;;;;;10.55;5.25;;;1.70;99.90;;;;;;10052238;28;20037;-67
2024/01/16 19:08:47;;;;;;;11.57;5.63;;;1.70;99.90;;;;;;10057633;28;20515;-70
2024/01/16 19:13:39;;;;;;;10.50;5.72;;;1.70;99.90;;;;;;10058739;28;20044;-69
2024/01/16 19:18:31;;;;;;;12.00;5.18;;;1.60;99.90;;;;;;10058989;28;20115;-69
2024/01/16 19:23:21;;;;;;;17.15;6.15;;;1.60;99.90;;;;;;10057708;28;20515;-69
2024/01/16 19:28:12;;;;;;;18.80;6.70;;;1.50;99.90;;;;;;10056919;28;20030;-69
2024/01/16 19:33:04;;;;;;;12.30;5.43;;;1.50;99.90;;;;;;10053406;28;20101;-67
2024/01/16 19:37:56;;;;;;;10.20;5.45;;;1.50;99.90;;;;;;10056523;28;20060;-67
2024/01/16 19:42:47;;;;;;;12.00;5.93;;;1.50;99.90;;;;;;10056391;28;20041;-66
2024/01/16 19:47:39;;;;;;;10.30;6.25;;;1.50;99.90;;;;;;10054251;28;20055;-66
2024/01/16 19:52:31;;;;;;;11.52;6.93;;;1.50;99.90;;;;;;10055781;28;20117;-66
2024/01/16 19:57:23;;;;;;;12.07;5.30;;;1.50;99.90;;;;;;10050377;28;20022;-64
2024/01/16 20:02:14;;;;;;;11.95;5.97;;;1.40;99.90;;;;;;10049402;28;20540;-63
2024/01/16 20:07:04;;;;;;;13.25;6.50;;;1.40;99.90;;;;;;10053523;28;20033;-64
2024/01/16 20:11:55;;;;;;;14.35;6.57;;;1.40;99.90;;;;;;10046474;28;20033;-66
2024/01/16 20:16:46;;;;;;;14.65;6.97;;;1.40;99.90;;;;;;10042570;28;20041;-67
2024/01/16 20:21:36;;;;;;;12.50;5.60;;;1.40;99.90;;;;;;10044768;28;20049;-66
2024/01/16 20:26:27;;;;;;;16.20;6.53;;;1.40;99.90;;;;;;10047310;28;20061;-66
2024/01/16 20:31:19;;;;;;;14.02;6.30;;;1.30;99.90;;;;;;10045238;28;20036;-67
2024/01/16 20:36:10;;;;;;;9.57;5.65;;;1.30;99.90;;;;;;10047633;28;20282;-65
2024/01/16 20:41:01;;;;;;;13.45;6.90;;;1.30;99.90;;;;;;10050616;28;20187;-66
2024/01/16 20:45:51;;;;;;;13.93;5.95;;;1.30;99.90;;;;;;10048487;28;20030;-66
2024/01/16 20:50:42;;;;;;;18.00;6.90;;;1.30;99.90;;;;;;10046443;28;20032;-74
2024/01/16 20:55:34;;;;;;;11.90;5.60;;;1.20;99.90;;;;;;10057395;28;20025;-77
2024/01/16 21:00:25;;;;;;;12.90;6.63;;;1.20;99.90;;;;;;10058151;28;20260;-74
2024/01/16 21:05:16;;;;;;;11.70;5.82;;;1.20;99.90;;;;;;10060670;28;20036;-73
2024/01/16 21:10:07;;;;;;;13.60;5.82;;;1.30;99.90;;;;;;10063349;28;20037;-70
2024/01/16 21:14:58;;;;;;;11.88;6.57;;;1.20;99.90;;;;;;10065164;28;20041;-75
2024/01/16 21:19:57;;;;;;;13.43;6.43;;;1.30;99.90;;;;;;10063369;28;20042;-74
2024/01/16 21:24:48;;;;;;;15.10;6.70;;;1.20;99.90;;;;;;10062621;28;20072;-73
2024/01/16 21:29:43;;;;;;;12.10;5.68;;;1.20;99.90;;;;;;10061615;28;20036;-77
2024/01/16 21:34:34;;;;;;;12.67;6.20;;;1.30;99.90;;;;;;10060302;28;20449;-74
2024/01/16 21:39:25;;;;;;;11.90;6.05;;;1.20;99.90;;;;;;10059456;28;20079;-72
2024/01/16 21:44:16;;;;;;;10.05;6.13;;;1.20;99.90;;;;;;10061814;28;20026;-73
2024/01/16 21:49:06;;;;;;;13.88;6.25;;;1.20;99.90;;;;;;10060371;28;20104;-72
2024/01/16 21:53:57;;;;;;;11.32;5.65;;;1.20;99.90;;;;;;10061478;28;20144;-72
2024/01/16 21:58:50;;;;;;;11.02;6.10;;;1.20;99.90;;;;;;10060789;28;20043;-72
2024/01/16 22:03:40;;;;;;;9.40;4.97;;;1.20;99.90;;;;;;10059965;28;20060;-71
2024/01/16 22:08:31;;;;;;;10.35;5.93;;;1.10;99.90;;;;;;10060580;28;20074;-72
2024/01/16 22:13:22;;;;;;;10.18;5.75;;;1.10;99.90;;;;;;10061852;28;20030;-70
2024/01/16 22:18:13;;;;;;;9.18;5.20;;;1.10;99.90;;;;;;10061599;28;20032;-71
2024/01/16 22:23:03;;;;;;;12.45;6.15;;;1.10;99.90;;;;;;10067544;28;20476;-71
2024/01/16 22:27:54;;;;;;;12.20;5.65;;;1.10;99.90;;;;;;10060018;28;20041;-70
2024/01/16 22:32:45;;;;;;;11.57;5.40;;;1.10;99.90;;;;;;10065631;28;20124;-69
2024/01/16 22:37:37;;;;;;;10.82;5.57;;;1.10;99.90;;;;;;10063478;28;20029;-69
2024/01/16 22:42:27;;;;;;;7.20;4.85;;;1.10;99.90;;;;;;10057834;28;20618;-69
2024/01/16 22:47:18;;;;;;;13.45;5.35;;;1.10;99.90;;;;;;10059511;28;20021;-70
2024/01/16 22:52:08;;;;;;;13.13;5.75;;;1.10;99.90;;;;;;10057940;28;20609;-71
2024/01/16 22:57:00;;;;;;;11.20;6.13;;;1.10;99.90;;;;;;10057604;28;20105;-69
2024/01/16 23:01:50;;;;;;;8.85;5.38;;;1.20;99.90;;;;;;10058520;28;20120;-71
2024/01/16 23:06:42;;;;;;;13.52;5.22;;;1.20;99.90;;;;;;10059072;28;20100;-69
2024/01/16 23:11:32;;;;;;;12.43;5.78;;;1.20;99.90;;;;;;10058446;28;20515;-69
2024/01/16 23:16:23;;;;;;;8.50;4.72;;;1.20;99.90;;;;;;10060143;28;20116;-69
2024/01/16 23:21:16;;;;;;;11.05;5.65;;;1.20;99.90;;;;;;10062092;28;20064;-68
2024/01/16 23:26:08;;;;;;;11.70;5.82;;;1.20;99.90;;;;;;10058081;28;20515;-70
2024/01/16 23:31:00;;;;;;;14.25;6.18;;;1.10;99.90;;;;;;10057686;28;20044;-68
2024/01/16 23:35:50;;;;;;;9.77;5.68;;;1.10;99.90;;;;;;10057893;28;20021;-69
2024/01/16 23:40:41;;;;;;;10.18;5.47;;;1.10;99.90;;;;;;10057081;28;20435;-68
2024/01/16 23:45:34;;;;;;;12.73;5.18;;;1.10;99.90;;;;;;10057435;28;20021;-68
2024/01/16 23:50:25;;;;;;;15.50;5.60;;;1.10;99.90;;;;;;10045880;28;20032;-68
2024/01/16 23:55:16;;;;;;;13.32;5.97;;;1.10;99.90;;;;;;10054313;28;20100;-69
